Time;durP1;ratioP1;P1;durP2;ratioP2;P2;SDS_P1;SDS_P2;PMS_P1;PMS_P2;Temp;Humidity;BMP_temperature;BMP_pressure;BME280_temperature;BME280_humidity;BME280_pressure;Samples;Min_cycle;Max_cycle;Signal;HPM_P1;HPM_P2
2021/06/18 00:00:09;;;;;;;3.37;3.07;;;;;;;16.41;100.00;97891.41;5074950;28;20193;-82
2021/06/18 00:02:37;;;;;;;5.10;4.07;;;;;;;16.38;100.00;97875.84;5074851;28;20184;-81
2021/06/18 00:05:05;;;;;;;3.40;2.83;;;;;;;16.41;100.00;97875.50;5074766;28;20231;-81
2021/06/18 00:07:33;;;;;;;3.47;3.17;;;;;;;16.40;100.00;97865.03;5074666;28;20208;-82
2021/06/18 00:10:00;;;;;;;3.37;3.17;;;;;;;16.49;100.00;97861.47;5074858;28;20201;-81
2021/06/18 00:12:28;;;;;;;3.23;3.03;;;;;;;16.40;100.00;97849.13;5074528;28;20261;-82
2021/06/18 00:14:59;;;;;;;3.27;3.07;;;;;;;16.48;100.00;97840.38;5074749;28;20200;-82
2021/06/18 00:17:26;;;;;;;3.10;2.90;;;;;;;16.43;100.00;97874.53;5074990;28;20219;-82
2021/06/18 00:19:54;;;;;;;3.90;3.00;;;;;;;16.46;100.00;97872.38;5074413;28;20669;-82
2021/06/18 00:22:22;;;;;;;3.37;3.10;;;;;;;16.50;100.00;97876.41;5074538;28;20203;-83
2021/06/18 00:24:49;;;;;;;3.07;2.83;;;;;;;16.40;100.00;97865.03;5074928;28;20196;-82
2021/06/18 00:27:16;;;;;;;3.90;3.60;;;;;;;16.48;100.00;97865.09;5074513;28;20203;-83
2021/06/18 00:29:44;;;;;;;3.43;3.23;;;;;;;16.47;100.00;97863.44;5074225;28;20227;-83
2021/06/18 00:32:12;;;;;;;3.47;3.17;;;;;;;16.57;100.00;97852.72;5074539;28;20675;-83
2021/06/18 00:34:40;;;;;;;3.03;2.83;;;;;;;16.44;100.00;97853.13;5074372;28;20200;-83
2021/06/18 00:37:07;;;;;;;3.00;2.80;;;;;;;16.49;100.00;97858.81;5074390;28;20329;-83
2021/06/18 00:39:35;;;;;;;3.37;3.07;;;;;;;16.48;100.00;97851.81;5073967;28;20203;-83
2021/06/18 00:42:03;;;;;;;3.47;3.27;;;;;;;16.50;100.00;97849.03;5074584;28;20273;-83
2021/06/18 00:44:30;;;;;;;3.47;3.20;;;;;;;16.55;100.00;97841.41;5074111;28;20250;-83
2021/06/18 00:46:58;;;;;;;2.90;2.70;;;;;;;16.51;100.00;97827.63;5074120;28;20231;-83
2021/06/18 00:49:27;;;;;;;3.10;2.90;;;;;;;16.52;100.00;97818.69;5073698;28;20228;-83
2021/06/18 00:51:55;;;;;;;3.43;3.13;;;;;;;16.53;100.00;97819.53;5074226;28;20699;-82
2021/06/18 00:54:29;;;;;;;3.20;2.90;;;;;;;16.54;100.00;97821.16;5074022;28;20291;-82
2021/06/18 00:56:58;;;;;;;2.90;2.70;;;;;;;16.49;100.00;97810.22;5074105;28;20188;-82
2021/06/18 00:59:26;;;;;;;2.97;2.77;;;;;;;16.57;100.00;97815.56;5073613;28;20207;-83
2021/06/18 01:01:54;;;;;;;3.30;3.00;;;;;;;16.55;100.00;97821.00;5073298;28;20227;-82
2021/06/18 01:04:24;;;;;;;3.27;3.07;;;;;;;16.48;100.00;97814.66;5073748;28;20793;-82
2021/06/18 01:06:57;;;;;;;3.03;2.80;;;;;;;16.54;100.00;97811.38;5073851;28;20236;-82
2021/06/18 01:09:27;;;;;;;2.90;2.70;;;;;;;16.60;100.00;97812.59;5073310;28;20211;-83
2021/06/18 01:11:59;;;;;;;2.70;2.50;;;;;;;16.59;100.00;97810.91;5073737;28;20209;-82
2021/06/18 01:14:32;;;;;;;2.80;2.60;;;;;;;16.59;100.00;97813.56;5073434;28;20205;-83
2021/06/18 01:17:05;;;;;;;4.23;2.67;;;;;;;16.67;100.00;97804.81;5073676;28;20181;-83
2021/06/18 01:19:42;;;;;;;3.20;2.90;;;;;;;16.69;100.00;97794.84;5073170;28;20187;-83
2021/06/18 01:22:14;;;;;;;3.30;3.07;;;;;;;16.74;100.00;97800.53;5073488;28;20191;-83
2021/06/18 01:24:57;;;;;;;2.43;2.20;;;;;;;16.60;100.00;97797.50;5073244;28;20188;-82
2021/06/18 01:27:40;;;;;;;3.00;2.47;;;;;;;16.58;100.00;97803.94;5073526;28;20572;-82
2021/06/18 01:30:11;;;;;;;2.93;2.70;;;;;;;16.60;100.00;97799.31;5073170;28;20209;-83
2021/06/18 01:32:43;;;;;;;2.97;2.77;;;;;;;16.54;100.00;97810.56;5073334;28;20192;-83
2021/06/18 01:35:16;;;;;;;3.40;3.10;;;;;;;16.52;100.00;97817.84;5073094;28;20195;-83
2021/06/18 01:37:45;;;;;;;2.73;2.53;;;;;;;16.57;100.00;97827.00;5073001;28;20211;-83
2021/06/18 01:40:14;;;;;;;3.37;3.17;;;;;;;16.55;100.00;97822.81;5073194;28;20565;-83
2021/06/18 01:42:43;;;;;;;3.80;2.77;;;;;;;16.61;100.00;97819.53;5072971;28;20294;-82
2021/06/18 01:45:16;;;;;;;4.03;2.80;;;;;;;16.57;100.00;97819.03;5072958;28;20196;-82
2021/06/18 01:47:45;;;;;;;4.13;2.97;;;;;;;16.60;100.00;97823.19;5072880;28;20235;-83
2021/06/18 01:50:16;;;;;;;3.03;2.83;;;;;;;16.54;100.00;97813.22;5072673;28;20312;-82
2021/06/18 01:52:48;;;;;;;3.70;3.00;;;;;;;16.53;100.00;97808.91;5072866;28;20204;-82
2021/06/18 01:55:17;;;;;;;2.70;2.50;;;;;;;16.43;100.00;97814.31;5072850;28;20283;-82
2021/06/18 01:57:47;;;;;;;2.87;2.67;;;;;;;16.49;100.00;97829.63;5072516;28;20682;-82
2021/06/18 02:00:17;;;;;;;4.50;2.60;;;;;;;16.43;100.00;97830.25;5072801;28;20196;-83
2021/06/18 02:02:47;;;;;;;3.07;2.87;;;;;;;16.48;100.00;97837.72;5072570;28;20567;-82
2021/06/18 02:05:16;;;;;;;4.93;3.30;;;;;;;16.52;100.00;97828.44;5072466;28;20669;-82
2021/06/18 02:07:45;;;;;;;2.90;2.70;;;;;;;16.47;100.00;97836.06;5072504;28;20200;-82
2021/06/18 02:10:13;;;;;;;3.33;3.07;;;;;;;16.44;100.00;97831.91;5072292;28;20217;-83
2021/06/18 02:12:42;;;;;;;3.13;2.83;;;;;;;16.36;100.00;97840.66;5072285;28;20232;-82
2021/06/18 02:15:10;;;;;;;3.47;2.80;;;;;;;16.50;100.00;97846.38;5071625;28;20197;-83
2021/06/18 02:17:42;;;;;;;3.43;2.80;;;;;;;16.49;100.00;97834.09;5072593;28;20200;-83
2021/06/18 02:20:12;;;;;;;2.70;2.50;;;;;;;16.47;100.00;97844.03;5072298;28;20244;-82
2021/06/18 02:22:41;;;;;;;3.00;2.80;;;;;;;16.41;100.00;97840.16;5072609;28;20196;-82
2021/06/18 02:25:12;;;;;;;2.80;2.60;;;;;;;16.35;100.00;97838.16;5071821;28;20189;-82
2021/06/18 02:27:41;;;;;;;2.80;2.60;;;;;;;16.48;100.00;97837.72;5072074;28;20197;-82
2021/06/18 02:30:12;;;;;;;3.33;2.97;;;;;;;16.50;100.00;97841.06;5071622;28;20222;-83
2021/06/18 02:32:42;;;;;;;2.90;2.70;;;;;;;16.55;100.00;97833.44;5071197;28;20188;-83
2021/06/18 02:35:11;;;;;;;3.17;2.97;;;;;;;16.47;100.00;97831.59;5071281;28;20189;-83
2021/06/18 02:37:39;;;;;;;5.67;2.73;;;;;;;16.53;100.00;97841.59;5071775;28;20257;-83
2021/06/18 02:40:08;;;;;;;3.00;2.80;;;;;;;16.51;100.00;97837.41;5071656;28;20210;-83
2021/06/18 02:42:35;;;;;;;3.37;3.10;;;;;;;16.54;100.00;97842.41;5071653;28;20208;-83
2021/06/18 02:45:04;;;;;;;3.00;2.80;;;;;;;16.60;100.00;97844.44;5071945;28;20201;-83
2021/06/18 02:47:38;;;;;;;3.50;2.80;;;;;;;16.59;100.00;97832.13;5071973;28;20655;-83
2021/06/18 02:50:13;;;;;;;2.87;2.67;;;;;;;16.61;100.00;97827.50;5071798;28;20203;-83
2021/06/18 02:52:47;;;;;;;3.07;2.83;;;;;;;16.59;100.00;97824.16;5071976;28;20270;-82
2021/06/18 02:55:18;;;;;;;2.40;2.30;;;;;;;16.56;100.00;97820.03;5071530;28;20194;-82
2021/06/18 02:57:52;;;;;;;2.50;2.30;;;;;;;16.60;100.00;97816.06;5072197;28;20223;-82
2021/06/18 03:00:21;;;;;;;2.60;2.40;;;;;;;16.64;100.00;97809.44;5072242;28;20183;-82
2021/06/18 03:02:55;;;;;;;2.93;2.40;;;;;;;16.61;100.00;97803.63;5071598;28;20691;-83
2021/06/18 03:05:25;;;;;;;3.03;2.17;;;;;;;16.58;100.00;97798.63;5071655;28;20185;-82
2021/06/18 03:07:56;;;;;;;2.57;2.37;;;;;;;16.60;100.00;97792.19;5072118;28;20611;-83
2021/06/18 03:10:27;;;;;;;2.60;2.40;;;;;;;16.65;100.00;97781.06;5071420;28;20758;-82
2021/06/18 03:13:02;;;;;;;4.37;2.40;;;;;;;16.65;100.00;97770.44;5071677;28;20195;-82
2021/06/18 03:15:34;;;;;;;2.70;2.50;;;;;;;16.76;100.00;97764.88;5071622;28;20187;-84
2021/06/18 03:18:02;;;;;;;2.10;2.00;;;;;;;16.83;100.00;97751.78;5071504;28;20188;-83
2021/06/18 03:20:38;;;;;;;2.40;2.20;;;;;;;16.83;100.00;97738.50;5071509;28;20253;-81
2021/06/18 03:23:09;;;;;;;2.60;2.10;;;;;;;16.91;100.00;97717.31;5071464;28;20204;-81
2021/06/18 03:25:38;;;;;;;2.27;2.17;;;;;;;16.92;100.00;97721.63;5073319;28;20250;-82
2021/06/18 03:28:11;;;;;;;2.20;2.10;;;;;;;16.91;100.00;97696.06;5076827;28;20695;-81
2021/06/18 03:30:39;;;;;;;4.63;2.40;;;;;;;16.91;100.00;97700.53;5076857;28;20683;-82
2021/06/18 03:33:08;;;;;;;2.60;2.40;;;;;;;16.94;100.00;97700.19;5066748;28;20197;-82
2021/06/18 03:35:38;;;;;;;2.40;2.30;;;;;;;17.06;100.00;97681.13;5075340;28;20254;-82
2021/06/18 03:38:07;;;;;;;2.53;2.33;;;;;;;17.10;100.00;97661.19;5075498;28;20196;-81
2021/06/18 03:40:36;;;;;;;2.97;2.77;;;;;;;17.06;100.00;97645.78;5075140;28;20280;-82
2021/06/18 03:43:04;;;;;;;2.20;2.00;;;;;;;17.09;100.00;97640.13;5075540;28;20235;-82
2021/06/18 03:45:32;;;;;;;2.70;2.50;;;;;;;17.05;100.00;97638.81;5074793;28;20197;-81
2021/06/18 03:48:01;;;;;;;2.00;1.90;;;;;;;17.08;100.00;97634.00;5075163;28;20235;-82
2021/06/18 03:50:30;;;;;;;2.63;2.43;;;;;;;17.05;100.00;97623.69;5074875;28;20754;-82
2021/06/18 03:52:59;;;;;;;2.20;2.10;;;;;;;17.11;100.00;97622.19;5070600;28;20270;-81
2021/06/18 03:55:26;;;;;;;2.50;2.30;;;;;;;17.08;100.00;97627.84;5054925;28;20255;-82
2021/06/18 03:57:54;;;;;;;3.37;2.23;;;;;;;17.15;100.00;97638.66;5055189;28;20557;-81
2021/06/18 04:00:22;;;;;;;2.50;2.30;;;;;;;17.16;100.00;97627.84;5054813;28;20204;-81
2021/06/18 04:02:51;;;;;;;2.63;2.43;;;;;;;17.14;100.00;97629.81;5054642;28;20597;-81
2021/06/18 04:05:23;;;;;;;2.87;2.67;;;;;;;17.24;100.00;97627.81;5054723;28;20198;-81
2021/06/18 04:07:53;;;;;;;3.10;2.30;;;;;;;17.23;100.00;97615.53;5054722;28;20193;-81
2021/06/18 04:10:22;;;;;;;2.70;2.50;;;;;;;17.28;100.00;97612.38;5054819;28;20225;-81
2021/06/18 04:12:53;;;;;;;2.47;2.27;;;;;;;17.31;100.00;97610.22;5054796;28;20228;-81
2021/06/18 04:15:23;;;;;;;2.30;2.20;;;;;;;17.38;100.00;97601.56;5054616;28;20179;-81
2021/06/18 04:17:51;;;;;;;3.00;2.60;;;;;;;17.29;100.00;97598.94;5055025;28;20581;-81
2021/06/18 04:20:20;;;;;;;3.57;2.17;;;;;;;17.34;100.00;97599.25;5054313;28;20252;-81
2021/06/18 04:22:49;;;;;;;2.20;2.10;;;;;;;17.41;100.00;97596.75;5054380;28;20197;-81
2021/06/18 04:25:17;;;;;;;2.47;2.20;;;;;;;17.39;100.00;97595.25;5054397;28;20251;-81
2021/06/18 04:27:46;;;;;;;2.73;2.53;;;;;;;17.30;100.00;97600.59;5054555;28;20194;-81
2021/06/18 04:30:15;;;;;;;3.70;2.43;;;;;;;17.41;100.00;97602.06;5053112;28;20225;-81
2021/06/18 04:32:43;;;;;;;4.03;2.40;;;;;;;17.33;100.00;97610.88;5053721;28;20681;-81
2021/06/18 04:35:12;;;;;;;2.40;2.20;;;;;;;17.46;100.00;97621.00;5055199;28;20658;-81
2021/06/18 04:37:40;;;;;;;2.10;2.00;;;;;;;17.52;100.00;97612.34;5073365;28;20636;-81
2021/06/18 04:40:09;;;;;;;5.37;2.63;;;;;;;17.50;100.00;97601.06;5071279;28;20241;-81
2021/06/18 04:42:37;;;;;;;2.70;2.30;;;;;;;17.54;100.00;97606.88;5054070;28;20209;-81
2021/06/18 04:45:08;;;;;;;8.67;2.40;;;;;;;17.56;100.00;97611.03;5054051;28;20201;-81
2021/06/18 04:47:35;;;;;;;2.37;2.20;;;;;;;17.59;100.00;97608.03;5054236;28;20681;-81
2021/06/18 04:50:04;;;;;;;2.13;1.93;;;;;;;17.60;100.00;97611.50;5067453;28;20224;-81
2021/06/18 04:52:32;;;;;;;2.30;2.13;;;;;;;17.64;100.00;97615.47;5074201;28;20288;-81
2021/06/18 04:55:02;;;;;;;2.20;2.10;;;;;;;17.63;100.00;97632.44;5073658;28;20197;-81
2021/06/18 04:57:29;;;;;;;2.63;2.43;;;;;;;17.77;100.00;97658.38;5074374;28;20223;-81
2021/06/18 04:59:57;;;;;;;2.43;2.23;;;;;;;17.64;100.00;97671.31;5073795;28;20201;-81
2021/06/18 05:02:26;;;;;;;3.00;2.80;;;;;;;17.63;100.00;97696.25;5073982;28;20193;-81
2021/06/18 05:04:53;;;;;;;3.40;3.10;;;;;;;17.62;100.00;97721.16;5073512;28;20228;-81
2021/06/18 05:07:20;;;;;;;2.50;2.20;;;;;;;17.63;100.00;97729.97;5071233;28;20204;-81
2021/06/18 05:09:48;;;;;;;2.60;2.40;;;;;;;17.67;100.00;97748.09;5053514;28;20279;-81
2021/06/18 05:12:15;;;;;;;2.30;2.10;;;;;;;17.67;100.00;97755.25;5054081;28;20553;-81
2021/06/18 05:14:43;;;;;;;3.47;2.23;;;;;;;17.65;100.00;97768.69;5053352;28;20205;-81
2021/06/18 05:17:10;;;;;;;2.70;2.50;;;;;;;17.77;100.00;97790.50;5053679;28;20667;-81
2021/06/18 05:19:39;;;;;;;2.17;2.07;;;;;;;17.70;100.00;97795.63;5053344;28;20190;-81
2021/06/18 05:22:06;;;;;;;2.70;2.50;;;;;;;17.67;100.00;97811.91;5053343;28;20241;-81
2021/06/18 05:24:34;;;;;;;2.50;2.30;;;;;;;17.79;100.00;97821.22;5053357;28;20205;-81
2021/06/18 05:27:01;;;;;;;2.90;2.47;;;;;;;17.82;100.00;97804.94;5053791;28;20225;-81
2021/06/18 05:29:29;;;;;;;2.67;2.47;;;;;;;17.93;100.00;97795.78;5053170;28;20222;-81
2021/06/18 05:31:56;;;;;;;2.80;2.60;;;;;;;17.94;100.00;97781.50;5053427;28;20229;-81
2021/06/18 05:34:23;;;;;;;3.20;2.27;;;;;;;18.00;100.00;97770.16;5057723;28;20205;-81
2021/06/18 05:36:52;;;;;;;2.97;2.77;;;;;;;18.04;100.00;97755.53;5073290;28;20287;-81
2021/06/18 05:39:20;;;;;;;2.67;2.47;;;;;;;17.94;100.00;97756.72;5073315;28;20269;-81
2021/06/18 05:41:47;;;;;;;2.83;2.63;;;;;;;17.87;100.00;97764.53;5073196;28;20204;-81
2021/06/18 05:44:15;;;;;;;2.37;2.17;;;;;;;17.86;100.00;97759.41;5072648;28;20255;-81
2021/06/18 05:46:42;;;;;;;2.50;2.30;;;;;;;17.90;100.00;97766.03;5072921;28;20252;-81
2021/06/18 05:49:09;;;;;;;2.87;2.63;;;;;;;17.88;100.00;97789.34;5072580;28;20189;-81
2021/06/18 05:51:37;;;;;;;3.40;2.70;;;;;;;17.85;100.00;97794.97;5072955;28;20200;-81
2021/06/18 05:54:06;;;;;;;2.93;2.73;;;;;;;17.94;100.00;97831.19;5072520;28;20196;-81
2021/06/18 05:56:33;;;;;;;3.97;2.83;;;;;;;17.95;100.00;97856.81;5072884;28;20201;-81
2021/06/18 05:59:01;;;;;;;3.50;3.20;;;;;;;17.97;100.00;97894.72;5072627;28;20258;-81
2021/06/18 06:01:28;;;;;;;2.97;2.70;;;;;;;17.92;100.00;97913.00;5072786;28;20193;-81
2021/06/18 06:03:56;;;;;;;3.70;3.40;;;;;;;17.93;100.00;97936.78;5072551;28;20255;-81
2021/06/18 06:06:24;;;;;;;4.50;3.00;;;;;;;17.97;100.00;97969.19;5054996;28;20193;-81
2021/06/18 06:08:53;;;;;;;4.27;3.13;;;;;;;17.98;100.00;97970.88;5072776;28;20247;-81
2021/06/18 06:11:23;;;;;;;5.57;3.17;;;;;;;18.03;100.00;97977.34;5072834;28;20220;-81
2021/06/18 06:13:57;;;;;;;6.13;2.90;;;;;;;18.18;100.00;97974.88;5052554;28;20217;-82
2021/06/18 06:16:26;;;;;;;3.50;3.20;;;;;;;18.28;100.00;97954.25;5052553;28;20204;-81
2021/06/18 06:18:53;;;;;;;3.63;3.07;;;;;;;18.29;100.00;97939.16;5052357;28;20206;-81
2021/06/18 06:21:21;;;;;;;6.77;2.90;;;;;;;18.40;100.00;97927.31;5052501;28;20267;-81
2021/06/18 06:23:49;;;;;;;5.37;2.83;;;;;;;18.37;100.00;97930.31;5052255;28;20197;-81
2021/06/18 06:26:17;;;;;;;8.23;3.23;;;;;;;18.47;100.00;97928.31;5052087;28;20202;-81
2021/06/18 06:28:46;;;;;;;3.63;3.33;;;;;;;18.54;100.00;97921.31;5052476;28;20634;-81
2021/06/18 06:31:14;;;;;;;3.70;3.40;;;;;;;18.53;100.00;97930.28;5052212;28;20586;-82
2021/06/18 06:33:42;;;;;;;3.70;3.40;;;;;;;18.66;100.00;97911.97;5052053;28;20202;-82
2021/06/18 06:36:09;;;;;;;5.40;2.77;;;;;;;18.60;100.00;97902.00;5052237;28;20197;-81
2021/06/18 06:38:37;;;;;;;3.27;2.67;;;;;;;18.69;100.00;97886.84;5052330;28;20624;-82
2021/06/18 06:41:04;;;;;;;2.80;2.60;;;;;;;18.77;100.00;97874.38;5052155;28;20670;-81
2021/06/18 06:43:32;;;;;;;3.30;3.00;;;;;;;18.81;100.00;97863.34;5051958;28;20219;-81
2021/06/18 06:46:01;;;;;;;3.00;2.80;;;;;;;18.82;100.00;97875.69;5051792;28;20197;-81
2021/06/18 06:48:28;;;;;;;3.87;2.60;;;;;;;18.74;100.00;97864.06;5051626;28;20226;-81
2021/06/18 06:50:56;;;;;;;2.90;2.70;;;;;;;18.76;100.00;97875.34;5051890;28;20217;-82
2021/06/18 06:53:23;;;;;;;3.33;2.70;;;;;;;18.72;100.00;97878.53;5051621;28;20705;-81
2021/06/18 06:55:50;;;;;;;2.77;2.57;;;;;;;18.65;100.00;97880.19;5051872;28;20284;-81
2021/06/18 06:58:18;;;;;;;2.90;2.70;;;;;;;18.59;100.00;97884.34;5051775;28;20197;-81
2021/06/18 07:00:46;;;;;;;2.57;2.37;;;;;;;18.68;100.00;97898.50;5051227;28;20193;-81
2021/06/18 07:03:14;;;;;;;2.73;2.53;;;;;;;18.75;100.00;97916.31;5051160;28;20586;-81
2021/06/18 07:05:42;;;;;;;3.00;2.80;;;;;;;18.79;100.00;97918.63;5051722;28;20251;-81
2021/06/18 07:08:20;;;;;;;3.07;2.87;;;;;;;18.87;100.00;97907.94;5051729;28;20620;-81
2021/06/18 07:10:47;;;;;;;3.07;2.87;;;;;;;18.91;100.00;97901.28;5052021;28;20241;-81
2021/06/18 07:13:15;;;;;;;3.33;3.13;;;;;;;18.99;100.00;97861.31;5051539;28;20194;-81
2021/06/18 07:15:43;;;;;;;3.17;2.87;;;;;;;19.05;100.00;97819.78;5051641;28;20272;-81
2021/06/18 07:18:11;;;;;;;2.67;2.47;;;;;;;19.03;100.00;97817.31;5051701;28;20201;-81
2021/06/18 07:20:40;;;;;;;2.87;2.67;;;;;;;18.99;100.00;97824.81;5051521;28;20208;-81
2021/06/18 07:23:08;;;;;;;3.00;2.80;;;;;;;19.04;100.00;97855.44;5051374;28;20264;-81
2021/06/18 07:25:36;;;;;;;2.67;2.47;;;;;;;18.98;100.00;97889.78;5051462;28;20678;-81
2021/06/18 07:28:04;;;;;;;4.00;2.90;;;;;;;18.92;100.00;97942.91;5051655;28;20230;-81
2021/06/18 07:30:31;;;;;;;3.57;3.27;;;;;;;18.77;100.00;97988.91;5051343;28;20232;-81
2021/06/18 07:32:59;;;;;;;4.07;3.20;;;;;;;18.67;100.00;98019.31;5051544;28;20209;-82
2021/06/18 07:35:26;;;;;;;3.20;3.00;;;;;;;18.69;100.00;98075.94;5051383;28;20198;-81
2021/06/18 07:37:55;;;;;;;4.17;3.10;;;;;;;18.65;100.00;98109.22;5051516;28;20651;-81
2021/06/18 07:40:23;;;;;;;3.87;3.57;;;;;;;18.63;100.00;98141.31;5051333;28;20194;-81
2021/06/18 07:42:50;;;;;;;4.57;3.43;;;;;;;18.57;100.00;98157.97;5051510;28;20197;-81
2021/06/18 07:45:18;;;;;;;3.60;3.30;;;;;;;18.57;100.00;98179.28;5051534;28;20225;-81
2021/06/18 07:47:46;;;;;;;4.93;3.13;;;;;;;18.75;100.00;98204.00;5051249;28;20233;-82
2021/06/18 07:50:15;;;;;;;3.60;3.20;;;;;;;18.77;100.00;98218.00;5051205;28;20230;-82
2021/06/18 07:52:43;;;;;;;4.90;4.50;;;;;;;18.72;100.00;98211.47;5051425;28;20194;-82
2021/06/18 07:55:17;;;;;;;5.90;3.37;;;;;;;18.80;100.00;98215.97;5051171;28;20202;-82
2021/06/18 07:57:44;;;;;;;3.90;3.50;;;;;;;18.95;100.00;98207.19;5051299;28;20193;-83
2021/06/18 08:00:13;;;;;;;3.80;3.47;;;;;;;19.01;100.00;98182.53;5051306;28;20740;-82
2021/06/18 08:02:40;;;;;;;5.17;3.70;;;;;;;19.06;100.00;98163.41;5051002;28;20202;-82
2021/06/18 08:05:10;;;;;;;3.77;3.47;;;;;;;19.05;100.00;98120.91;5050977;28;20209;-82
2021/06/18 08:07:38;;;;;;;3.30;3.10;;;;;;;19.00;100.00;98090.28;5051246;28;20764;-82
2021/06/18 08:10:07;;;;;;;3.67;3.47;;;;;;;18.85;100.00;98069.81;5050756;28;20201;-82
2021/06/18 08:12:37;;;;;;;4.00;3.60;;;;;;;18.71;100.00;98056.16;5054740;28;20229;-83
2021/06/18 08:15:06;;;;;;;4.00;3.60;;;;;;;18.71;100.00;98032.19;5054702;28;20233;-83
2021/06/18 08:17:33;;;;;;;3.63;3.40;;;;;;;18.69;100.00;98017.34;5054910;28;20197;-83
2021/06/18 08:20:01;;;;;;;4.10;3.70;;;;;;;18.63;100.00;98004.69;5054608;28;20224;-82
2021/06/18 08:22:28;;;;;;;3.70;3.40;;;;;;;18.60;100.00;97995.22;5054481;28;20666;-83
2021/06/18 08:24:56;;;;;;;4.20;3.50;;;;;;;18.53;100.00;97994.19;5054653;28;20732;-82
2021/06/18 08:27:24;;;;;;;3.83;3.53;;;;;;;18.41;100.00;97966.25;5054609;28;20193;-82
2021/06/18 08:29:53;;;;;;;4.50;3.80;;;;;;;18.39;100.00;97952.25;5054384;28;20198;-82
2021/06/18 08:32:20;;;;;;;4.90;4.10;;;;;;;18.42;100.00;97920.81;5054501;28;20217;-83
2021/06/18 08:34:48;;;;;;;4.33;3.93;;;;;;;18.37;100.00;97869.09;5054365;28;20616;-82
2021/06/18 08:37:15;;;;;;;4.50;3.80;;;;;;;18.32;100.00;97805.69;5054368;28;20197;-82
2021/06/18 08:39:43;;;;;;;4.00;3.70;;;;;;;18.21;100.00;97784.78;5054269;28;20208;-82
2021/06/18 08:42:11;;;;;;;4.77;4.27;;;;;;;18.29;100.00;97743.03;5054282;28;20255;-82
2021/06/18 08:44:39;;;;;;;5.13;4.50;;;;;;;18.36;100.00;97697.06;5053831;28;20205;-82
2021/06/18 08:47:09;;;;;;;4.53;3.67;;;;;;;18.28;100.00;97647.34;5054066;28;20652;-82
2021/06/18 08:49:36;;;;;;;3.70;3.40;;;;;;;18.14;100.00;97611.66;5053898;28;20617;-82
2021/06/18 08:52:04;;;;;;;3.90;3.60;;;;;;;18.14;100.00;97569.09;5054159;28;20718;-82
2021/06/18 08:54:45;;;;;;;4.47;4.03;;;;;;;18.09;100.00;97550.19;5053756;28;20678;-82
2021/06/18 08:57:14;;;;;;;4.10;3.80;;;;;;;18.07;100.00;97528.22;5054125;28;20701;-82
2021/06/18 08:59:42;;;;;;;4.03;3.73;;;;;;;18.13;100.00;97505.44;5053790;28;20202;-82
2021/06/18 09:02:12;;;;;;;4.10;3.80;;;;;;;18.18;100.00;97476.44;5053685;28;20281;-82
2021/06/18 09:05:02;;;;;;;5.40;4.70;;;;;;;18.30;100.00;97437.78;5053696;28;20259;-83
2021/06/18 09:07:30;;;;;;;4.57;4.27;;;;;;;18.41;100.00;97436.53;5053834;28;20190;-82
2021/06/18 09:09:58;;;;;;;4.77;4.37;;;;;;;18.38;100.00;97434.22;5053572;28;20256;-83
2021/06/18 09:12:25;;;;;;;5.50;5.00;;;;;;;18.38;100.00;97434.22;5053800;28;20725;-83
2021/06/18 09:14:52;;;;;;;4.77;4.27;;;;;;;18.38;100.00;97431.56;5053837;28;20198;-82
2021/06/18 09:17:24;;;;;;;5.07;4.57;;;;;;;18.37;100.00;97432.56;5053708;28;20259;-83
2021/06/18 09:19:53;;;;;;;5.30;4.80;;;;;;;18.30;100.00;97433.28;5053500;28;20635;-82
2021/06/18 09:22:22;;;;;;;5.53;5.03;;;;;;;18.22;100.00;97417.38;5053199;28;20247;-81
2021/06/18 09:24:59;;;;;;;4.70;4.30;;;;;;;18.29;100.00;97404.19;5053260;28;20197;-82
2021/06/18 09:27:34;;;;;;;4.67;4.27;;;;;;;18.20;100.00;97352.88;5053754;28;20232;-82
2021/06/18 09:30:17;;;;;;;5.00;4.60;;;;;;;18.14;100.00;97355.41;5053123;28;20735;-82
2021/06/18 09:32:59;;;;;;;4.67;4.27;;;;;;;18.25;100.00;97357.63;5053448;28;20195;-82
2021/06/18 09:35:27;;;;;;;4.70;4.30;;;;;;;18.16;100.00;97329.47;5053232;28;20213;-82
2021/06/18 09:37:56;;;;;;;4.40;4.00;;;;;;;18.20;100.00;97342.22;5053130;28;20233;-82
2021/06/18 09:40:24;;;;;;;4.00;3.70;;;;;;;18.32;100.00;97334.63;5053054;28;20198;-82
2021/06/18 09:42:56;;;;;;;4.47;4.17;;;;;;;18.44;100.00;97308.41;5053176;28;20202;-82
2021/06/18 09:45:25;;;;;;;4.50;4.10;;;;;;;18.55;100.00;97297.28;5052737;28;20209;-83
2021/06/18 09:47:55;;;;;;;4.23;3.90;;;;;;;18.64;100.00;97292.72;5052989;28;20668;-82
2021/06/18 09:50:27;;;;;;;4.97;4.67;;;;;;;18.78;100.00;97275.94;5052818;28;20186;-83
2021/06/18 09:53:13;;;;;;;4.37;4.07;;;;;;;18.90;100.00;97257.63;5052834;28;20669;-83
2021/06/18 09:55:42;;;;;;;4.00;3.60;;;;;;;18.96;100.00;97240.91;5052916;28;20190;-83
2021/06/18 09:58:11;;;;;;;3.80;3.53;;;;;;;19.02;100.00;97234.81;5052850;28;20190;-82
2021/06/18 10:00:39;;;;;;;4.03;3.73;;;;;;;19.07;100.00;97228.91;5053041;28;20224;-82
2021/06/18 10:03:10;;;;;;;3.33;3.13;;;;;;;19.09;100.00;97235.72;5052568;28;20209;-82
2021/06/18 10:05:39;;;;;;;5.53;3.30;;;;;;;19.23;100.00;97269.47;5052856;28;20205;-81
2021/06/18 10:08:08;;;;;;;4.10;3.77;;;;;;;19.27;100.00;97301.91;5052634;28;20190;-82
2021/06/18 10:10:38;;;;;;;3.40;3.10;;;;;;;19.38;100.00;97324.59;5052181;28;20288;-81
2021/06/18 10:13:06;;;;;;;3.70;3.40;;;;;;;19.47;100.00;97350.13;5052561;28;20650;-82
2021/06/18 10:15:38;;;;;;;4.13;3.77;;;;;;;19.50;100.00;97365.75;5052776;28;20210;-82
2021/06/18 10:18:11;;;;;;;4.33;4.03;;;;;;;19.73;100.00;97378.13;5052491;28;20714;-82
2021/06/18 10:20:40;;;;;;;4.33;4.00;;;;;;;19.75;100.00;97397.44;5052438;28;20671;-81
2021/06/18 10:23:12;;;;;;;3.73;3.43;;;;;;;19.79;100.00;97428.03;5052090;28;20205;-81
2021/06/18 10:25:43;;;;;;;3.70;3.40;;;;;;;19.77;100.00;97430.88;5052376;28;20662;-81
2021/06/18 10:28:19;;;;;;;4.00;2.93;;;;;;;19.83;100.00;97451.47;5052643;28;20595;-81
2021/06/18 10:30:48;;;;;;;3.30;3.10;;;;;;;19.70;100.00;97454.81;5052072;28;20217;-82
2021/06/18 10:33:33;;;;;;;4.73;4.30;;;;;;;19.73;100.00;97472.28;5052436;28;20638;-82
2021/06/18 10:36:05;;;;;;;3.83;3.53;;;;;;;19.69;100.00;97495.84;5051637;28;20197;-81
2021/06/18 10:38:34;;;;;;;3.97;3.57;;;;;;;19.62;100.00;97504.75;5052373;28;20577;-81
2021/06/18 10:41:03;;;;;;;3.20;3.00;;;;;;;19.55;100.00;97504.66;5051834;28;20732;-82
2021/06/18 10:43:39;;;;;;;3.87;3.57;;;;;;;19.43;100.00;97508.78;5051893;28;20198;-82
2021/06/18 10:46:18;;;;;;;3.20;3.00;;;;;;;19.35;100.00;97528.38;5051988;28;20259;-81
2021/06/18 10:49:02;;;;;;;3.20;3.00;;;;;;;19.27;100.00;97515.16;5051330;28;20253;-82
2021/06/18 10:51:50;;;;;;;3.67;3.37;;;;;;;19.11;100.00;97523.31;5052196;28;20685;-82
2021/06/18 10:54:29;;;;;;;3.53;3.33;;;;;;;19.13;100.00;97523.97;5052142;28;20208;-81
2021/06/18 10:57:28;;;;;;;4.33;3.93;;;;;;;19.02;100.00;97506.59;5051748;28;20647;-81
2021/06/18 10:59:56;;;;;;;4.00;3.70;;;;;;;19.04;100.00;97493.88;5051652;28;20256;-81
2021/06/18 11:02:35;;;;;;;3.30;3.10;;;;;;;18.87;100.00;97479.06;5051887;28;20193;-81
2021/06/18 11:05:07;;;;;;;4.23;3.87;;;;;;;19.07;100.00;97472.22;5051577;28;20209;-81
2021/06/18 11:07:37;;;;;;;4.37;4.07;;;;;;;19.00;100.00;97489.94;5051886;28;20593;-82
2021/06/18 11:10:07;;;;;;;4.50;4.10;;;;;;;18.99;100.00;97501.63;5051391;28;20189;-81
2021/06/18 11:12:45;;;;;;;4.00;3.70;;;;;;;19.09;100.00;97504.03;5051657;28;20231;-81
2021/06/18 11:15:49;;;;;;;3.07;2.87;;;;;;;18.99;100.00;97481.13;5051540;28;20185;-81
2021/06/18 11:18:19;;;;;;;4.10;3.10;;;;;;;19.13;100.00;97468.00;5051477;28;20641;-81
2021/06/18 11:21:08;;;;;;;3.93;3.63;;;;;;;19.18;100.00;97485.06;5051628;28;20286;-81
2021/06/18 11:23:58;;;;;;;4.33;3.63;;;;;;;19.20;100.00;97480.41;5051577;28;20182;-81
2021/06/18 11:26:26;;;;;;;5.07;4.37;;;;;;;19.27;100.00;97466.34;5051705;28;20228;-81
2021/06/18 11:28:54;;;;;;;3.90;3.60;;;;;;;19.22;100.00;97464.22;5051249;28;20197;-82
2021/06/18 11:31:43;;;;;;;3.93;3.63;;;;;;;19.23;100.00;97445.38;5051498;28;20222;-81
2021/06/18 11:34:34;;;;;;;5.40;4.23;;;;;;;19.18;100.00;97423.78;5051418;28;20201;-82
2021/06/18 11:37:02;;;;;;;4.47;4.17;;;;;;;19.12;100.00;97437.00;5036373;28;20209;-82